Time;durP1;ratioP1;P1;durP2;ratioP2;P2;SDS_P1;SDS_P2;PMS_P1;PMS_P2;Temp;Humidity;BMP_temperature;BMP_pressure;BME280_temperature;BME280_humidity;BME280_pressure;Samples;Min_cycle;Max_cycle;Signal;HPM_P1;HPM_P2
2022/06/06 00:01:17;;;;;;;;;;;16.40;1.00;;;;;;5070586;28;20270;-83
2022/06/06 00:03:43;;;;;;;;;;;16.40;1.00;;;;;;5071833;28;20394;-82
2022/06/06 00:06:19;;;;;;;;;;;16.40;1.00;;;;;;5070361;28;20003;-82
2022/06/06 00:08:45;;;;;;;;;;;16.40;1.00;;;;;;5071392;28;19912;-84
2022/06/06 00:11:11;;;;;;;;;;;16.40;1.00;;;;;;5056574;28;19919;-84
2022/06/06 00:13:37;;;;;;;;;;;16.40;1.00;;;;;;5055885;28;19995;-83
2022/06/06 00:16:03;;;;;;;;;;;16.40;1.00;;;;;;5070311;28;19943;-82
2022/06/06 00:18:29;;;;;;;;;;;16.40;1.00;;;;;;5071635;28;20007;-83
2022/06/06 00:20:55;;;;;;;;;;;16.40;1.00;;;;;;5070973;28;20353;-83
2022/06/06 00:23:20;;;;;;;;;;;16.40;1.00;;;;;;5074083;28;19912;-84
2022/06/06 00:25:46;;;;;;;;;;;16.40;1.00;;;;;;5054676;28;20024;-83
2022/06/06 00:28:11;;;;;;;;;;;16.40;1.00;;;;;;5056624;28;20066;-84
2022/06/06 00:30:37;;;;;;;;;;;16.40;1.00;;;;;;5054275;28;19928;-84
2022/06/06 00:35:46;;;;;;;;;;;16.40;1.00;;;;;;5077634;28;19981;-84
2022/06/06 00:38:12;;;;;;;;;;;16.40;1.00;;;;;;5078753;28;19916;-84
2022/06/06 00:40:37;;;;;;;;;;;16.40;1.00;;;;;;5071323;28;20595;-83
2022/06/06 00:43:03;;;;;;;;;;;16.40;1.00;;;;;;5072998;28;19920;-82
2022/06/06 00:45:36;;;;;;;;;;;16.40;1.00;;;;;;5052916;28;20379;-84
2022/06/06 00:48:09;;;;;;;;;;;16.40;1.00;;;;;;5064704;28;19952;-83
2022/06/06 00:50:39;;;;;;;;;;;16.40;1.00;;;;;;5072960;28;19923;-83
2022/06/06 00:53:06;;;;;;;;;;;16.40;1.00;;;;;;5071194;28;19920;-84
2022/06/06 00:55:33;;;;;;;;;;;16.40;1.00;;;;;;5052427;28;19944;-82
2022/06/06 00:58:03;;;;;;;;;;;16.50;1.00;;;;;;5071221;28;19928;-84
2022/06/06 01:00:28;;;;;;;;;;;16.50;1.00;;;;;;5070248;28;19909;-83
2022/06/06 01:02:56;;;;;;;;;;;16.50;1.00;;;;;;5071928;28;19919;-83
2022/06/06 01:05:24;;;;;;;;;;;16.40;1.00;;;;;;5070159;28;20007;-83
2022/06/06 01:07:50;;;;;;;;;;;16.40;1.00;;;;;;5053677;28;19936;-84
2022/06/06 01:10:16;;;;;;;;;;;16.40;1.00;;;;;;5072174;28;19916;-83
2022/06/06 01:12:43;;;;;;;;;;;16.40;1.00;;;;;;5053006;28;19912;-82
2022/06/06 01:15:09;;;;;;;;;;;16.40;1.00;;;;;;5074936;28;19919;-83
2022/06/06 01:17:48;;;;;;;;;;;16.40;1.00;;;;;;5072251;28;19913;-83
2022/06/06 01:20:33;;;;;;;;;;;16.40;1.00;;;;;;5071871;28;19930;-83
2022/06/06 01:23:20;;;;;;;;;;;16.40;1.00;;;;;;5071216;28;19918;-84
2022/06/06 01:25:58;;;;;;;;;;;16.40;1.00;;;;;;5073339;28;20319;-83
2022/06/06 01:28:42;;;;;;;;;;;16.40;1.00;;;;;;5070572;28;19927;-83
2022/06/06 01:31:10;;;;;;;;;;;16.40;1.00;;;;;;5055377;28;19912;-83
2022/06/06 01:33:53;;;;;;;;;;;16.40;1.00;;;;;;5071454;28;19947;-84
2022/06/06 01:36:20;;;;;;;;;;;16.30;1.00;;;;;;5074755;28;20319;-84
2022/06/06 01:38:46;;;;;;;;;;;16.30;1.00;;;;;;5071295;28;19913;-83
2022/06/06 01:41:15;;;;;;;;;;;16.40;1.00;;;;;;5058552;28;19979;-84
2022/06/06 01:43:52;;;;;;;;;;;16.40;1.00;;;;;;5071756;28;20203;-83
2022/06/06 01:46:28;;;;;;;;;;;16.30;1.00;;;;;;5076059;28;19912;-83
2022/06/06 01:48:55;;;;;;;;;;;16.30;1.00;;;;;;5074482;28;19920;-83
2022/06/06 01:51:23;;;;;;;;;;;16.30;1.00;;;;;;5075177;28;19909;-83
2022/06/06 01:53:48;;;;;;;;;;;16.30;1.00;;;;;;5074228;28;19927;-84
2022/06/06 01:56:15;;;;;;;;;;;16.30;1.00;;;;;;5075383;28;20276;-83
2022/06/06 01:58:41;;;;;;;;;;;16.30;1.00;;;;;;5074250;28;19998;-83
2022/06/06 02:01:06;;;;;;;;;;;16.20;1.00;;;;;;5055269;28;20479;-83
2022/06/06 02:03:32;;;;;;;;;;;16.20;1.00;;;;;;5070946;28;19909;-84
2022/06/06 02:05:58;;;;;;;;;;;16.20;1.00;;;;;;5056588;28;19913;-83
2022/06/06 02:08:23;;;;;;;;;;;16.20;1.00;;;;;;5057232;28;19987;-83
2022/06/06 02:10:49;;;;;;;;;;;16.20;1.00;;;;;;5074262;28;20380;-83
2022/06/06 02:13:15;;;;;;;;;;;16.20;1.00;;;;;;5072861;28;19919;-84
2022/06/06 02:15:41;;;;;;;;;;;16.20;1.00;;;;;;5073684;28;19915;-83
2022/06/06 02:18:06;;;;;;;;;;;16.20;1.00;;;;;;5074553;28;19917;-83
2022/06/06 02:20:32;;;;;;;;;;;16.10;1.00;;;;;;5072364;28;19909;-82
2022/06/06 02:22:58;;;;;;;;;;;16.10;1.00;;;;;;5055271;28;19912;-84
2022/06/06 02:25:24;;;;;;;;;;;16.00;1.00;;;;;;5075340;28;19913;-83
2022/06/06 02:27:50;;;;;;;;;;;16.00;1.00;;;;;;5070477;28;19928;-83
2022/06/06 02:30:18;;;;;;;;;;;15.90;1.00;;;;;;5072071;28;19949;-83
2022/06/06 02:32:44;;;;;;;;;;;15.80;1.00;;;;;;5074288;28;19920;-83
2022/06/06 02:35:13;;;;;;;;;;;15.80;1.00;;;;;;5056476;28;19924;-83
2022/06/06 02:37:39;;;;;;;;;;;15.70;1.00;;;;;;5073319;28;19924;-82
2022/06/06 02:40:05;;;;;;;;;;;15.70;1.00;;;;;;5071459;28;19938;-83
2022/06/06 02:42:31;;;;;;;;;;;15.70;1.00;;;;;;5072558;28;19939;-83
2022/06/06 02:44:56;;;;;;;;;;;15.80;1.00;;;;;;5053612;28;19920;-84
2022/06/06 02:47:22;;;;;;;;;;;15.80;1.00;;;;;;5076062;28;19966;-82
2022/06/06 02:49:47;;;;;;;;;;;15.80;1.00;;;;;;5053111;28;19924;-84
2022/06/06 02:52:12;;;;;;;;;;;15.80;1.00;;;;;;5073986;28;19957;-83
2022/06/06 02:54:38;;;;;;;;;;;15.80;1.00;;;;;;5072870;28;20411;-83
2022/06/06 02:57:04;;;;;;;;;;;15.80;1.00;;;;;;5055260;28;19912;-82
2022/06/06 02:59:33;;;;;;;;;;;15.80;1.00;;;;;;5067638;28;19924;-83
2022/06/06 03:01:59;;;;;;;;;;;15.80;1.00;;;;;;5073649;28;19920;-83
2022/06/06 03:04:24;;;;;;;;;;;15.80;1.00;;;;;;5074377;28;20369;-83
2022/06/06 03:07:13;;;;;;;;;;;15.80;1.00;;;;;;5070623;28;19912;-84
2022/06/06 03:09:41;;;;;;;;;;;15.80;1.00;;;;;;5035849;28;19912;-83
2022/06/06 03:12:17;;;;;;;;;;;15.80;1.00;;;;;;5073325;28;20004;-83
2022/06/06 03:14:42;;;;;;;;;;;15.80;1.00;;;;;;5056135;28;19913;-82
2022/06/06 03:23:06;;;;;;;;;;;15.80;1.00;;;;;;5076960;28;20042;-84
2022/06/06 03:25:52;;;;;;;;;;;15.80;1.00;;;;;;5075307;28;19912;-83
2022/06/06 03:28:24;;;;;;;;;;;15.80;1.00;;;;;;5069734;28;19920;-84
2022/06/06 03:31:00;;;;;;;;;;;15.80;1.00;;;;;;5055743;28;19931;-83
2022/06/06 03:33:36;;;;;;;;;;;15.80;1.00;;;;;;5069792;28;19916;-82
2022/06/06 03:36:06;;;;;;;;;;;15.80;1.00;;;;;;5072126;28;19979;-83
2022/06/06 03:38:54;;;;;;;;;;;15.80;1.00;;;;;;5072631;28;19952;-83
2022/06/06 03:41:32;;;;;;;;;;;15.80;1.00;;;;;;5072557;28;19919;-82
2022/06/06 03:44:06;;;;;;;;;;;15.80;1.00;;;;;;5071972;28;19920;-84
2022/06/06 03:46:43;;;;;;;;;;;15.80;1.00;;;;;;5052532;28;19971;-82
2022/06/06 03:49:09;;;;;;;;;;;15.80;1.00;;;;;;5068963;28;19916;-83
2022/06/06 03:51:43;;;;;;;;;;;15.80;1.00;;;;;;5070999;28;19921;-83
2022/06/06 03:54:29;;;;;;;;;;;15.80;1.00;;;;;;5068392;28;19992;-82
2022/06/06 03:57:12;;;;;;;;;;;15.80;1.00;;;;;;5049996;28;20278;-83
2022/06/06 03:59:39;;;;;;;;;;;15.90;1.00;;;;;;5049774;28;19912;-82
2022/06/06 04:02:05;;;;;;;;;;;15.90;1.00;;;;;;5066942;28;19970;-83
2022/06/06 04:04:31;;;;;;;;;;;16.00;1.00;;;;;;5071128;28;19908;-83
2022/06/06 04:06:58;;;;;;;;;;;16.00;1.00;;;;;;5068933;28;19913;-83
2022/06/06 04:09:24;;;;;;;;;;;15.90;1.00;;;;;;5067461;28;19915;-82
2022/06/06 04:11:50;;;;;;;;;;;15.90;1.00;;;;;;5070901;28;19913;-82
2022/06/06 04:14:30;;;;;;;;;;;15.90;1.00;;;;;;5068097;28;19912;-82
2022/06/06 04:17:11;;;;;;;;;;;15.80;1.00;;;;;;5068141;28;20384;-83
2022/06/06 04:19:42;;;;;;;;;;;15.80;1.00;;;;;;5068077;28;19916;-83
2022/06/06 04:22:23;;;;;;;;;;;15.80;1.00;;;;;;5072920;28;19974;-83
2022/06/06 04:24:57;;;;;;;;;;;15.80;1.00;;;;;;5069026;28;20013;-83
2022/06/06 04:27:28;;;;;;;;;;;15.80;99.90;;;;;;5071362;28;19931;-83
2022/06/06 04:30:06;;;;;;;;;;;15.90;99.90;;;;;;5072728;28;19947;-83
2022/06/06 04:32:50;;;;;;;;;;;15.90;99.90;;;;;;5053595;28;19913;-83
2022/06/06 04:35:20;;;;;;;;;;;15.90;99.90;;;;;;5069659;28;19921;-82
2022/06/06 04:37:54;;;;;;;;;;;15.90;99.90;;;;;;5067916;28;20430;-83
2022/06/06 04:40:38;;;;;;;;;;;15.90;99.90;;;;;;5054554;28;19962;-83
2022/06/06 04:43:22;;;;;;;;;;;15.80;99.90;;;;;;5070204;28;20552;-83
2022/06/06 04:46:00;;;;;;;;;;;15.80;99.90;;;;;;5069575;28;19912;-83
2022/06/06 04:48:26;;;;;;;;;;;15.90;99.90;;;;;;5066254;28;20292;-82
2022/06/06 04:50:51;;;;;;;;;;;16.00;99.90;;;;;;5064590;28;19916;-83
2022/06/06 04:53:19;;;;;;;;;;;16.10;99.90;;;;;;5066940;28;20286;-82
2022/06/06 04:55:46;;;;;;;;;;;16.10;99.90;;;;;;5068803;28;19927;-84
2022/06/06 04:58:11;;;;;;;;;;;16.20;99.90;;;;;;5065189;28;19920;-83
2022/06/06 05:00:37;;;;;;;;;;;16.20;1.00;;;;;;5069775;28;19943;-83
2022/06/06 05:03:03;;;;;;;;;;;16.30;1.00;;;;;;5064464;28;20296;-83
2022/06/06 05:05:35;;;;;;;;;;;16.40;99.90;;;;;;5076363;28;20267;-84
2022/06/06 05:08:13;;;;;;;;;;;16.50;99.90;;;;;;5072557;28;19982;-83
2022/06/06 05:10:38;;;;;;;;;;;16.60;13.90;;;;;;5066579;28;19948;-84
2022/06/06 05:13:07;;;;;;;;;;;16.50;1.00;;;;;;5051662;28;19932;-82
2022/06/06 05:15:51;;;;;;;;;;;16.40;22.30;;;;;;5074760;28;20030;-84
2022/06/06 05:18:25;;;;;;;;;;;16.30;9.00;;;;;;5070595;28;19962;-83
2022/06/06 05:20:54;;;;;;;;;;;16.30;42.30;;;;;;5075282;28;19988;-83
2022/06/06 05:23:25;;;;;;;;;;;16.30;99.90;;;;;;5076502;28;19913;-83
2022/06/06 05:26:13;;;;;;;;;;;16.40;99.90;;;;;;5075075;28;19939;-82
2022/06/06 05:28:48;;;;;;;;;;;16.50;99.90;;;;;;5070757;28;19955;-82
2022/06/06 05:31:13;;;;;;;;;;;16.60;1.00;;;;;;5071026;28;19912;-82
2022/06/06 05:34:02;;;;;;;;;;;16.80;99.90;;;;;;5059099;28;19913;-81
2022/06/06 05:36:34;;;;;;;;;;;16.80;71.70;;;;;;5065616;28;19917;-83
2022/06/06 05:39:03;;;;;;;;;;;17.00;1.00;;;;;;5081599;28;19924;-83
2022/06/06 05:41:34;;;;;;;;;;;17.20;1.00;;;;;;5078755;28;19921;-83
2022/06/06 05:44:00;;;;;;;;;;;17.50;1.00;;;;;;5063190;28;19913;-84
2022/06/06 05:46:45;;;;;;;;;;;17.70;99.90;;;;;;5062122;28;19927;-82
2022/06/06 05:49:10;;;;;;;;;;;17.80;1.00;;;;;;5078457;28;19920;-85
2022/06/06 05:51:55;;;;;;;;;;;18.10;1.00;;;;;;5080493;28;19913;-84
2022/06/06 05:54:27;;;;;;;;;;;18.20;1.00;;;;;;5057463;28;19913;-83
2022/06/06 05:57:11;;;;;;;;;;;18.40;1.00;;;;;;5063206;28;20292;-84
2022/06/06 05:59:58;;;;;;;;;;;18.40;99.90;;;;;;5080510;28;19917;-83
2022/06/06 06:02:43;;;;;;;;;;;18.30;99.90;;;;;;5063207;28;20369;-83
2022/06/06 06:05:11;;;;;;;;;;;18.40;99.90;;;;;;5075210;28;19923;-84
2022/06/06 06:07:39;;;;;;;;;;;18.80;99.90;;;;;;5073336;28;19958;-83
2022/06/06 06:10:10;;;;;;;;;;;20.10;1.00;;;;;;5074191;28;19919;-84
2022/06/06 06:12:45;;;;;;;;;;;22.50;1.00;;;;;;5069297;28;19924;-83
2022/06/06 06:15:30;;;;;;;;;;;25.40;99.90;;;;;;5073793;28;19966;-85
2022/06/06 06:17:56;;;;;;;;;;;27.40;99.90;;;;;;5065400;28;19932;-84
2022/06/06 06:20:24;;;;;;;;;;;30.20;99.90;;;;;;5064386;28;19913;-84
2022/06/06 06:22:57;;;;;;;;;;;31.80;99.90;;;;;;5068892;28;19913;-84
2022/06/06 06:25:23;;;;;;;;;;;33.30;99.90;;;;;;5068856;28;19935;-84
2022/06/06 06:27:49;;;;;;;;;;;34.30;99.90;;;;;;5070999;28;19912;-84
2022/06/06 06:30:15;;;;;;;;;;;35.50;99.90;;;;;;5082584;28;20498;-85
2022/06/06 06:32:50;;;;;;;;;;;35.90;99.90;;;;;;5068868;28;19917;-84
2022/06/06 06:43:10;;;;;;;;;;;38.80;99.90;;;;;;5063350;28;19932;-83
2022/06/06 06:45:56;;;;;;;;;;;39.30;99.90;;;;;;5061291;28;19968;-83
2022/06/06 06:48:45;;;;;;;;;;;40.00;99.90;;;;;;5062494;28;19924;-83
2022/06/06 06:51:23;;;;;;;;;;;40.30;99.90;;;;;;5053256;28;19982;-82
2022/06/06 06:54:07;;;;;;;;;;;40.50;99.90;;;;;;5061323;28;19917;-83
2022/06/06 06:56:32;;;;;;;;;;;41.20;99.90;;;;;;5079869;28;19935;-82
2022/06/06 06:59:11;;;;;;;;;;;41.80;99.90;;;;;;5062219;28;20342;-83
2022/06/06 07:08:32;;;;;;;;;;;43.60;99.90;;;;;;5062815;28;19924;-83
2022/06/06 07:10:08;;;;;;;;;;;45.70;99.90;;;;;;5059240;28;19924;-82
2022/06/06 07:12:33;;;;;;;;;;;46.40;99.90;;;;;;5064618;28;19923;-81
2022/06/06 07:15:02;;;;;;;;;;;47.00;99.90;;;;;;5063034;28;19949;-81
2022/06/06 07:17:30;;;;;;;;;;;46.80;99.90;;;;;;5065094;28;19912;-81
2022/06/06 07:20:09;;;;;;;;;;;46.30;99.90;;;;;;5063406;28;19935;-81
2022/06/06 07:22:59;;;;;;;;;;;47.10;99.90;;;;;;5077618;28;19912;-81
2022/06/06 07:25:22;;;;;;;;;;;47.80;99.90;;;;;;5063936;28;19936;-81
2022/06/06 07:27:50;;;;;;;;;;;48.10;99.90;;;;;;5060153;28;19940;-81
2022/06/06 07:30:19;;;;;;;;;;;47.50;99.90;;;;;;5058666;28;19943;-83
2022/06/06 07:33:00;;;;;;;;;;;48.30;99.90;;;;;;5061213;28;19982;-81
2022/06/06 07:35:38;;;;;;;;;;;48.20;99.90;;;;;;5063941;28;19927;-81
2022/06/06 07:38:03;;;;;;;;;;;48.40;99.90;;;;;;5057919;28;19979;-82
2022/06/06 07:40:41;;;;;;;;;;;48.20;99.90;;;;;;5059613;28;19956;-81
2022/06/06 07:43:19;;;;;;;;;;;46.10;99.90;;;;;;5062393;28;19916;-81
2022/06/06 07:45:45;;;;;;;;;;;43.80;99.90;;;;;;5055496;28;19999;-83
2022/06/06 07:48:16;;;;;;;;;;;44.90;99.90;;;;;;5062472;28;19925;-83
2022/06/06 07:51:03;;;;;;;;;;;44.90;99.90;;;;;;5073891;28;19913;-83
2022/06/06 07:53:34;;;;;;;;;;;45.00;99.90;;;;;;5062765;28;19917;-83
2022/06/06 07:56:00;;;;;;;;;;;45.30;99.90;;;;;;5059162;28;19996;-85
2022/06/06 07:58:31;;;;;;;;;;;45.30;99.90;;;;;;5068583;28;20235;-83
2022/06/06 08:01:10;;;;;;;;;;;45.70;99.90;;;;;;5071474;28;19913;-82
2022/06/06 08:03:57;;;;;;;;;;;44.90;99.90;;;;;;5053426;28;20313;-84
2022/06/06 08:06:36;;;;;;;;;;;45.40;99.90;;;;;;5049731;28;20003;-81
2022/06/06 08:09:07;;;;;;;;;;;46.70;99.90;;;;;;5054312;28;21272;-81
2022/06/06 08:11:47;;;;;;;;;;;47.00;99.90;;;;;;5054043;28;19920;-81
2022/06/06 08:14:14;;;;;;;;;;;46.70;99.90;;;;;;5055043;28;19920;-80
2022/06/06 08:17:00;;;;;;;;;;;45.80;99.30;;;;;;5071807;28;20327;-82
2022/06/06 08:19:33;;;;;;;;;;;46.50;99.80;;;;;;5064287;28;19915;-82
2022/06/06 08:21:59;;;;;;;;;;;43.90;92.90;;;;;;5054250;28;19943;-81
2022/06/06 08:24:30;;;;;;;;;;;43.10;92.50;;;;;;5051289;28;19912;-81
2022/06/06 08:26:57;;;;;;;;;;;43.30;92.90;;;;;;5055536;28;19913;-81
2022/06/06 08:29:23;;;;;;;;;;;43.80;94.10;;;;;;5054606;28;20038;-82
2022/06/06 08:31:48;;;;;;;;;;;45.50;97.20;;;;;;5057423;28;19944;-82
2022/06/06 08:34:14;;;;;;;;;;;45.00;95.90;;;;;;5053820;28;19924;-80
2022/06/06 08:36:39;;;;;;;;;;;45.20;95.60;;;;;;5075999;28;20004;-83
2022/06/06 08:39:11;;;;;;;;;;;43.50;91.30;;;;;;5078414;28;19913;-82
2022/06/06 08:41:50;;;;;;;;;;;43.90;93.60;;;;;;5072130;28;19916;-81
2022/06/06 08:44:27;;;;;;;;;;;41.20;84.70;;;;;;5061321;28;19928;-82
2022/06/06 08:47:00;;;;;;;;;;;38.00;76.00;;;;;;5082513;28;20433;-80
2022/06/06 08:52:20;;;;;;;;;;;39.20;85.40;;;;;;5084552;28;19966;-82
2022/06/06 08:55:04;;;;;;;;;;;37.60;79.20;;;;;;5070250;28;20003;-81
2022/06/06 08:57:36;;;;;;;;;;;37.10;80.40;;;;;;5063869;28;19916;-82
2022/06/06 09:00:04;;;;;;;;;;;36.50;79.90;;;;;;5080351;28;19962;-81
2022/06/06 09:02:42;;;;;;;;;;;36.60;82.60;;;;;;5080216;28;19913;-81
2022/06/06 09:05:19;;;;;;;;;;;34.30;76.10;;;;;;5056106;28;19913;-81
2022/06/06 09:07:58;;;;;;;;;;;32.70;75.80;;;;;;5077947;28;19912;-81
2022/06/06 09:10:39;;;;;;;;;;;31.20;75.30;;;;;;5058959;28;19920;-81
2022/06/06 09:13:04;;;;;;;;;;;29.80;75.30;;;;;;5082134;28;19912;-81
2022/06/06 09:15:36;;;;;;;;;;;28.50;75.00;;;;;;5082498;28;19913;-80
2022/06/06 09:18:17;;;;;;;;;;;28.00;76.90;;;;;;5062998;28;19935;-80
2022/06/06 09:20:55;;;;;;;;;;;27.20;77.50;;;;;;5061447;28;20003;-81
2022/06/06 09:23:24;;;;;;;;;;;26.70;80.20;;;;;;5072791;28;20430;-80
2022/06/06 09:25:55;;;;;;;;;;;26.70;84.20;;;;;;5068596;28;19921;-81
2022/06/06 09:28:39;;;;;;;;;;;26.70;90.10;;;;;;5073409;28;19920;-80
2022/06/06 09:31:23;;;;;;;;;;;26.90;91.60;;;;;;5062816;28;19947;-81
2022/06/06 09:33:58;;;;;;;;;;;27.30;94.40;;;;;;5078736;28;19912;-80
2022/06/06 09:36:45;;;;;;;;;;;27.10;95.30;;;;;;5063793;28;19920;-80
2022/06/06 09:39:25;;;;;;;;;;;26.80;95.40;;;;;;5079980;28;19944;-80
2022/06/06 09:41:56;;;;;;;;;;;26.20;95.70;;;;;;5077886;28;19916;-80
2022/06/06 09:44:56;;;;;;;;;;;25.60;96.20;;;;;;5079450;28;19916;-81
2022/06/06 09:47:33;;;;;;;;;;;25.40;97.50;;;;;;5088181;28;19913;-80
2022/06/06 09:50:08;;;;;;;;;;;25.30;99.00;;;;;;5071959;28;19917;-81
2022/06/06 09:52:36;;;;;;;;;;;25.50;99.90;;;;;;5071616;28;20426;-80
2022/06/06 10:00:58;;;;;;;;;;;28.40;99.90;;;;;;5080578;28;19987;-81
2022/06/06 10:03:42;;;;;;;;;;;29.90;99.90;;;;;;5057023;28;19924;-80
2022/06/06 10:06:28;;;;;;;;;;;30.50;99.90;;;;;;5061110;28;19945;-79
2022/06/06 10:09:29;;;;;;;;;;;30.10;99.90;;;;;;5066337;28;19955;-81
2022/06/06 10:12:10;;;;;;;;;;;30.90;99.90;;;;;;5087498;28;19918;-81
2022/06/06 10:14:54;;;;;;;;;;;33.40;99.90;;;;;;5087327;28;19921;-81
2022/06/06 10:17:26;;;;;;;;;;;35.30;99.90;;;;;;5087148;28;19912;-81
2022/06/06 10:20:16;;;;;;;;;;;36.30;99.90;;;;;;5084127;28;19934;-81
2022/06/06 10:22:44;;;;;;;;;;;35.80;99.90;;;;;;5081674;28;19912;-82
2022/06/06 10:25:25;;;;;;;;;;;36.10;99.90;;;;;;5087196;28;19916;-82
2022/06/06 10:27:50;;;;;;;;;;;35.80;99.90;;;;;;5083026;28;19918;-81
2022/06/06 10:30:22;;;;;;;;;;;36.60;99.90;;;;;;5084955;28;19934;-82
2022/06/06 10:33:07;;;;;;;;;;;36.50;99.90;;;;;;5086446;28;19913;-81
2022/06/06 10:35:39;;;;;;;;;;;36.60;99.90;;;;;;5071534;28;20004;-80
2022/06/06 10:38:23;;;;;;;;;;;34.20;99.90;;;;;;5086928;28;20034;-81
2022/06/06 10:40:49;;;;;;;;;;;34.20;99.90;;;;;;5085499;28;19923;-82
2022/06/06 10:43:17;;;;;;;;;;;35.90;99.90;;;;;;5082628;28;20455;-81
2022/06/06 10:45:46;;;;;;;;;;;34.50;99.90;;;;;;5083737;28;19909;-82
2022/06/06 10:48:12;;;;;;;;;;;33.10;99.90;;;;;;5068114;28;19925;-81
2022/06/06 10:54:00;;;;;;;;;;;30.80;99.90;;;;;;5087033;28;19937;-81
2022/06/06 10:56:31;;;;;;;;;;;29.40;99.00;;;;;;5086345;28;19917;-80
2022/06/06 10:58:59;;;;;;;;;;;27.90;98.40;;;;;;5064368;28;19939;-81
2022/06/06 11:01:43;;;;;;;;;;;25.60;97.60;;;;;;5063127;28;19922;-82
2022/06/06 11:04:20;;;;;;;;;;;24.20;99.00;;;;;;5081227;28;19961;-81
2022/06/06 11:06:46;;;;;;;;;;;23.00;99.30;;;;;;5059170;28;19948;-81
2022/06/06 11:09:30;;;;;;;;;;;22.30;99.90;;;;;;5077695;28;19916;-81
2022/06/06 11:11:58;;;;;;;;;;;22.10;99.90;;;;;;5079570;28;19980;-82
2022/06/06 11:14:32;;;;;;;;;;;24.10;99.90;;;;;;5080320;28;19984;-82
2022/06/06 11:16:58;;;;;;;;;;;26.90;99.90;;;;;;5076121;28;20019;-82
2022/06/06 11:19:50;;;;;;;;;;;28.90;99.90;;;;;;5074271;28;19982;-80
2022/06/06 11:22:25;;;;;;;;;;;30.10;99.90;;;;;;5054061;28;19923;-82
2022/06/06 11:24:53;;;;;;;;;;;30.70;99.90;;;;;;5071945;28;20442;-82
2022/06/06 11:27:37;;;;;;;;;;;31.10;99.90;;;;;;5069936;28;19931;-82
2022/06/06 11:30:16;;;;;;;;;;;31.40;99.90;;;;;;5071024;28;19988;-81
2022/06/06 11:32:41;;;;;;;;;;;30.60;99.90;;;;;;5072807;28;19928;-81
2022/06/06 11:35:16;;;;;;;;;;;29.50;99.90;;;;;;5076368;28;19920;-82
2022/06/06 11:37:41;;;;;;;;;;;28.60;99.90;;;;;;5057656;28;19938;-81
2022/06/06 11:40:13;;;;;;;;;;;28.80;99.90;;;;;;5056541;28;19912;-81
2022/06/06 11:42:38;;;;;;;;;;;29.80;99.90;;;;;;5072975;28;19920;-81
2022/06/06 11:45:07;;;;;;;;;;;30.00;99.90;;;;;;5054639;28;19913;-81
2022/06/06 11:47:45;;;;;;;;;;;30.20;99.90;;;;;;5056988;28;19919;-81
2022/06/06 11:50:13;;;;;;;;;;;30.20;99.90;;;;;;5065688;28;19920;-80
2022/06/06 11:52:50;;;;;;;;;;;30.70;99.90;;;;;;5052761;28;19920;-82
2022/06/06 11:55:28;;;;;;;;;;;31.10;99.90;;;;;;5053859;28;20381;-82
2022/06/06 11:58:12;;;;;;;;;;;30.90;99.90;;;;;;5068788;28;19913;-81
2022/06/06 12:00:56;;;;;;;;;;;31.10;99.90;;;;;;5076017;28;19923;-81
2022/06/06 12:03:38;;;;;;;;;;;31.00;99.90;;;;;;5066330;28;20062;-81
2022/06/06 12:06:16;;;;;;;;;;;31.20;99.90;;;;;;5071891;28;19928;-81
2022/06/06 12:08:44;;;;;;;;;;;31.40;99.90;;;;;;5070496;28;19916;-82
2022/06/06 12:11:31;;;;;;;;;;;31.40;99.90;;;;;;5072864;28;19916;-80
2022/06/06 12:14:22;;;;;;;;;;;31.00;99.90;;;;;;5067856;28;20013;-81
2022/06/06 12:17:00;;;;;;;;;;;31.60;99.90;;;;;;5051671;28;19923;-81
2022/06/06 12:19:25;;;;;;;;;;;32.10;99.90;;;;;;5073005;28;19919;-81
2022/06/06 12:21:54;;;;;;;;;;;31.90;99.90;;;;;;5056407;28;19912;-81
2022/06/06 12:24:35;;;;;;;;;;;31.50;99.90;;;;;;5056471;28;20403;-81
2022/06/06 12:27:02;;;;;;;;;;;31.10;99.90;;;;;;5054344;28;19962;-81
2022/06/06 12:29:28;;;;;;;;;;;31.00;99.90;;;;;;5065905;28;19927;-80
2022/06/06 12:31:53;;;;;;;;;;;30.50;99.90;;;;;;5074420;28;19924;-81
2022/06/06 12:34:37;;;;;;;;;;;30.00;99.90;;;;;;5064098;28;19916;-81
2022/06/06 12:37:22;;;;;;;;;;;30.20;99.90;;;;;;5078056;28;19962;-82
2022/06/06 12:40:04;;;;;;;;;;;30.20;99.90;;;;;;5076898;28;19980;-82
2022/06/06 12:42:30;;;;;;;;;;;30.10;99.90;;;;;;5069464;28;19917;-82
2022/06/06 12:45:05;;;;;;;;;;;29.60;99.90;;;;;;5066337;28;19912;-82
2022/06/06 12:47:49;;;;;;;;;;;29.40;99.90;;;;;;5060309;28;19983;-82
2022/06/06 12:50:20;;;;;;;;;;;29.40;99.90;;;;;;5052983;28;19913;-82
2022/06/06 12:53:07;;;;;;;;;;;29.40;99.90;;;;;;5073190;28;19917;-82
2022/06/06 12:55:46;;;;;;;;;;;29.40;99.90;;;;;;5073857;28;20342;-82
2022/06/06 12:58:17;;;;;;;;;;;29.00;99.90;;;;;;5076798;28;19913;-82
2022/06/06 13:03:50;;;;;;;;;;;28.90;99.90;;;;;;5076978;28;19958;-81
2022/06/06 13:06:23;;;;;;;;;;;29.10;99.90;;;;;;5076484;28;20015;-81
2022/06/06 13:09:07;;;;;;;;;;;28.90;99.90;;;;;;5060263;28;19939;-81
2022/06/06 13:11:51;;;;;;;;;;;28.40;99.90;;;;;;5050837;28;20012;-81
2022/06/06 13:14:35;;;;;;;;;;;28.80;99.90;;;;;;5073358;28;20388;-82
2022/06/06 13:17:21;;;;;;;;;;;28.50;99.90;;;;;;5075167;28;19919;-81
2022/06/06 13:20:19;;;;;;;;;;;27.70;99.90;;;;;;5028159;28;19912;-82
2022/06/06 13:22:45;;;;;;;;;;;27.70;99.90;;;;;;5020002;28;20020;-81
2022/06/06 13:25:17;;;;;;;;;;;27.20;99.90;;;;;;5080090;28;20369;-82
2022/06/06 13:27:58;;;;;;;;;;;26.90;99.90;;;;;;5062947;28;19918;-83
2022/06/06 13:30:27;;;;;;;;;;;27.10;99.90;;;;;;5073221;28;20396;-83
2022/06/06 13:32:57;;;;;;;;;;;27.10;99.90;;;;;;5061360;28;19919;-82
2022/06/06 13:35:28;;;;;;;;;;;27.50;99.90;;;;;;5066555;28;20364;-81
2022/06/06 13:38:03;;;;;;;;;;;27.10;99.90;;;;;;5075601;28;20331;-81
2022/06/06 13:40:32;;;;;;;;;;;27.20;99.90;;;;;;5061183;28;19924;-82
2022/06/06 13:42:58;;;;;;;;;;;27.20;99.90;;;;;;5078968;28;20003;-81
2022/06/06 13:45:40;;;;;;;;;;;27.30;99.90;;;;;;5055499;28;19951;-81
2022/06/06 13:48:21;;;;;;;;;;;27.40;99.90;;;;;;5068596;28;19916;-80
2022/06/06 13:50:56;;;;;;;;;;;27.20;99.90;;;;;;5075425;28;19954;-80
2022/06/06 13:53:25;;;;;;;;;;;27.40;99.90;;;;;;5069277;28;19912;-84
2022/06/06 13:56:10;;;;;;;;;;;26.90;99.90;;;;;;5060483;28;20078;-85
2022/06/06 13:58:43;;;;;;;;;;;26.50;99.90;;;;;;5043794;28;19912;-84
2022/06/06 14:01:38;;;;;;;;;;;26.00;99.90;;;;;;5077710;28;19921;-85
2022/06/06 14:04:30;;;;;;;;;;;25.80;99.90;;;;;;5056726;28;19961;-84
2022/06/06 14:06:59;;;;;;;;;;;25.80;99.90;;;;;;5070835;28;19958;-85
2022/06/06 14:09:36;;;;;;;;;;;26.00;99.90;;;;;;5053154;28;19924;-85
2022/06/06 14:12:02;;;;;;;;;;;25.90;99.90;;;;;;5050906;28;20424;-85
2022/06/06 14:14:31;;;;;;;;;;;25.80;99.90;;;;;;5073159;28;19963;-85
2022/06/06 14:20:28;;;;;;;;;;;;;;;;;;;;;
2022/06/06 14:23:27;;;;;;;;;;;;;;;;;;;;;
2022/06/06 14:32:37;;;;;;;;;;;25.30;99.90;;;;;;5051665;28;19913;-84
2022/06/06 14:41:48;;;;;;;;;;;25.70;99.90;;;;;;5062700;28;19916;-85
2022/06/06 14:44:34;;;;;;;;;;;25.40;99.90;;;;;;5072791;28;20408;-84
2022/06/06 14:47:47;;;;;;;;;;;25.10;99.90;;;;;;5051465;28;19920;-84
2022/06/06 14:53:12;;;;;;;;;;;24.70;99.90;;;;;;5070147;28;19920;-85
2022/06/06 14:55:40;;;;;;;;;;;24.50;99.90;;;;;;5055021;28;20369;-84
2022/06/06 14:58:20;;;;;;;;;;;24.40;99.90;;;;;;5071525;28;19919;-84
2022/06/06 15:01:04;;;;;;;;;;;24.10;99.90;;;;;;5074096;28;19912;-85
2022/06/06 15:03:44;;;;;;;;;;;23.90;99.90;;;;;;5057590;28;20433;-85
2022/06/06 15:06:46;;;;;;;;;;;;;;;;;;;;;
2022/06/06 15:09:29;;;;;;;;;;;23.90;99.90;;;;;;5075829;28;19917;-84
2022/06/06 15:12:23;;;;;;;;;;;23.80;99.90;;;;;;5067160;28;19973;-84
2022/06/06 15:15:01;;;;;;;;;;;;;;;;;;;;;
2022/06/06 15:17:31;;;;;;;;;;;24.20;99.90;;;;;;5078548;28;20002;-85
2022/06/06 15:20:52;;;;;;;;;;;24.30;99.90;;;;;;5075371;28;19926;-85
2022/06/06 15:23:26;;;;;;;;;;;;;;;;;;;;;
2022/06/06 15:26:32;;;;;;;;;;;24.70;99.90;;;;;;5075927;28;20011;-85
2022/06/06 15:32:11;;;;;;;;;;;24.80;99.90;;;;;;5063662;28;20380;-86
2022/06/06 15:34:48;;;;;;;;;;;24.70;99.90;;;;;;5078787;28;19999;-85
2022/06/06 15:43:24;;;;;;;;;;;;;;;;;;;;;
2022/06/06 15:46:08;;;;;;;;;;;;;;;;;;;;;
2022/06/06 15:52:19;;;;;;;;;;;;;;;;;;;;;
2022/06/06 15:54:47;;;;;;;;;;;24.50;99.90;;;;;;5071520;28;20307;-83
2022/06/06 16:01:02;;;;;;;;;;;24.40;99.90;;;;;;4971256;28;19914;-84
2022/06/06 16:04:00;;;;;;;;;;;24.10;99.90;;;;;;5067364;28;20369;-84
2022/06/06 16:09:47;;;;;;;;;;;23.90;99.90;;;;;;5062372;28;19985;-84
2022/06/06 16:13:00;;;;;;;;;;;23.90;99.90;;;;;;5058150;28;19912;-83
2022/06/06 16:15:40;;;;;;;;;;;23.70;99.90;;;;;;5053206;28;19912;-84
2022/06/06 16:18:18;;;;;;;;;;;23.50;99.90;;;;;;5065599;28;19912;-84
2022/06/06 16:20:44;;;;;;;;;;;23.40;99.90;;;;;;5053121;28;19919;-84
2022/06/06 16:23:31;;;;;;;;;;;23.40;99.90;;;;;;5055125;28;19913;-85
2022/06/06 16:25:56;;;;;;;;;;;23.30;99.90;;;;;;5072081;28;20015;-84